Terminal Aerodrome Forecast
Issued by NWS Sioux Falls, SD

Home | Current Version | Previous Version | Text Only | Print | Product List | Glossary Off
Versions: 1 2 3 4 5 6 7 8 9 10 11 12 13 14 15 16 17 18 19

000
FTUS43 KFSD 231720
TAFFSD
TAF
KFSD 231720Z 2318/2418 15010KT P6SM SCT050
     FM232200 15013G19KT P6SM SCT050
     FM240200 15012KT P6SM BKN040
     FM241000 15013G20KT P6SM BKN025
     FM241500 15013G20KT 6SM -RA OVC015=

USA.gov is the U.S. government's official web portal to all federal, state and local government web resources and services.